createdAt,value
2023-01-23T00:01:45.921Z,0.97
2023-01-23T00:04:34.004Z,0.93
2023-01-23T00:07:20.909Z,0.77
2023-01-23T00:10:07.802Z,0.50
2023-01-23T00:12:54.661Z,0.70
2023-01-23T00:15:41.779Z,0.90
2023-01-23T00:18:28.698Z,0.60
2023-01-23T00:21:16.003Z,0.57
2023-01-23T00:24:05.511Z,0.73
2023-01-23T00:26:52.974Z,0.80
2023-01-23T00:29:39.827Z,0.60
2023-01-23T00:32:27.797Z,0.60
2023-01-23T00:35:14.657Z,1.00
2023-01-23T00:38:01.754Z,0.80
2023-01-23T00:40:48.613Z,0.70
2023-01-23T00:43:35.461Z,0.80
2023-01-23T00:46:22.532Z,0.70
2023-01-23T00:49:09.708Z,0.70
2023-01-23T00:51:56.653Z,0.70
2023-01-23T00:54:43.697Z,0.90
2023-01-23T00:57:30.845Z,0.90
2023-01-23T01:00:18.120Z,0.60
2023-01-23T01:03:05.487Z,0.70
2023-01-23T01:05:53.256Z,0.70
2023-01-23T01:08:40.220Z,0.93
2023-01-23T01:11:27.831Z,0.73
2023-01-23T01:14:18.834Z,0.73
2023-01-23T01:17:07.517Z,0.97
2023-01-23T01:19:54.441Z,0.80
2023-01-23T01:22:41.457Z,0.77
2023-01-23T01:25:28.709Z,0.50
2023-01-23T01:28:15.623Z,0.70
2023-01-23T01:31:02.896Z,0.87
2023-01-23T01:33:49.841Z,0.87
2023-01-23T01:36:41.790Z,0.67
2023-01-23T01:39:28.705Z,0.70
2023-01-23T01:42:15.624Z,0.97
2023-01-23T01:45:19.300Z,0.60
2023-01-23T01:48:06.369Z,0.80
2023-01-23T01:50:53.354Z,0.73
2023-01-23T01:53:45.371Z,0.80
2023-01-23T01:56:34.349Z,0.90
2023-01-23T01:59:22.126Z,0.90
2023-01-23T02:02:16.185Z,0.83
2023-01-23T02:05:07.757Z,0.80
2023-01-23T02:08:00.997Z,0.83
2023-01-23T02:10:47.957Z,0.90
2023-01-23T02:13:56.450Z,1.00
2023-01-23T02:16:49.158Z,0.93
2023-01-23T02:19:50.734Z,0.80
2023-01-23T02:23:34.959Z,1.10
2023-01-23T02:26:25.374Z,0.90
2023-01-23T02:29:12.861Z,1.17
2023-01-23T02:32:12.184Z,1.13
2023-01-23T02:35:00.191Z,1.17
2023-01-23T02:37:50.337Z,1.13
2023-01-23T02:40:37.452Z,1.20
2023-01-23T02:43:29.882Z,1.10
2023-01-23T02:46:30.177Z,1.20
2023-01-23T02:49:18.070Z,1.17
2023-01-23T02:52:05.438Z,1.23
2023-01-23T02:54:53.093Z,1.00
2023-01-23T02:57:40.038Z,0.90
2023-01-23T03:00:37.808Z,1.17
2023-01-23T03:03:24.713Z,1.47
2023-01-23T03:06:11.728Z,1.30
2023-01-23T03:08:58.693Z,1.10
2023-01-23T03:11:45.544Z,1.00
2023-01-23T03:14:36.641Z,1.13
2023-01-23T03:17:23.566Z,1.00
2023-01-23T03:20:10.841Z,1.10
2023-01-23T03:22:58.632Z,0.90
2023-01-23T03:25:48.526Z,1.00
2023-01-23T03:28:34.402Z,0.70
2023-01-23T03:31:21.375Z,1.27
2023-01-23T03:34:08.561Z,1.00
2023-01-23T03:36:56.697Z,0.90
2023-01-23T03:39:43.790Z,1.00
2023-01-23T03:42:30.962Z,1.00
2023-01-23T03:45:18.555Z,0.80
2023-01-23T03:48:05.688Z,0.90
2023-01-23T03:50:53.525Z,0.90
2023-01-23T03:53:41.587Z,0.87
2023-01-23T03:56:28.894Z,0.80
2023-01-23T03:59:16.734Z,0.97
2023-01-23T04:02:03.691Z,0.90
2023-01-23T04:04:54.811Z,0.73
2023-01-23T04:07:41.808Z,0.80
2023-01-23T04:10:29.240Z,0.77
2023-01-23T04:13:23.612Z,0.67
2023-01-23T04:16:11.559Z,0.60
2023-01-23T04:18:58.569Z,0.87
2023-01-23T04:21:46.526Z,0.80
2023-01-23T04:24:33.385Z,0.80
2023-01-23T04:27:20.361Z,0.80
2023-01-23T04:30:07.486Z,0.60
2023-01-23T04:32:55.413Z,0.70
2023-01-23T04:35:42.910Z,1.10
2023-01-23T04:38:30.698Z,0.90
2023-01-23T04:41:25.005Z,0.43
2023-01-23T04:44:22.320Z,0.60
2023-01-23T04:47:24.271Z,0.90
2023-01-23T04:50:11.642Z,0.90
2023-01-23T04:53:00.787Z,0.90
2023-01-23T04:55:47.797Z,0.60
2023-01-23T04:58:38.018Z,0.90
2023-01-23T05:01:27.662Z,0.77
2023-01-23T05:04:19.086Z,0.50
2023-01-23T05:07:07.734Z,0.77
2023-01-23T05:09:59.858Z,0.80
2023-01-23T05:12:46.825Z,0.67
2023-01-23T05:15:34.165Z,0.60
2023-01-23T05:18:21.274Z,0.70
2023-01-23T05:21:08.197Z,0.80
2023-01-23T05:23:55.183Z,0.70
2023-01-23T05:26:42.349Z,0.63
2023-01-23T05:29:29.575Z,0.50
2023-01-23T05:32:28.146Z,0.80
2023-01-23T05:35:35.581Z,1.03
2023-01-23T05:38:22.570Z,0.60
2023-01-23T05:41:10.273Z,0.47
2023-01-23T05:44:15.739Z,0.60
2023-01-23T05:47:13.119Z,0.77
2023-01-23T05:50:00.374Z,0.40
2023-01-23T05:52:52.126Z,0.80
2023-01-23T05:55:39.312Z,0.70
2023-01-23T05:58:27.786Z,0.90
2023-01-23T06:01:33.393Z,0.60
2023-01-23T06:04:29.241Z,0.80
2023-01-23T06:07:37.255Z,0.70
2023-01-23T06:10:28.507Z,0.70
2023-01-23T06:13:16.313Z,0.70
2023-01-23T06:16:03.637Z,0.40
2023-01-23T06:18:50.605Z,0.60
2023-01-23T06:21:37.585Z,0.70
2023-01-23T06:24:25.014Z,0.70
2023-01-23T06:27:12.001Z,0.60
2023-01-23T06:29:59.035Z,0.70
2023-01-23T06:32:46.158Z,0.50
2023-01-23T06:35:36.781Z,0.60
2023-01-23T06:38:23.766Z,0.70
2023-01-23T06:41:11.909Z,0.97
2023-01-23T06:44:01.975Z,0.90
2023-01-23T06:46:49.405Z,0.77
2023-01-23T06:49:36.432Z,1.10
2023-01-23T06:52:24.149Z,1.00
2023-01-23T06:55:11.926Z,0.60
2023-01-23T06:57:59.900Z,0.73
2023-01-23T07:00:47.362Z,0.90
2023-01-23T07:03:54.241Z,1.10
2023-01-23T07:06:37.239Z,0.60
2023-01-23T07:09:24.584Z,0.83
2023-01-23T07:12:21.748Z,0.80
2023-01-23T07:15:09.643Z,1.10
2023-01-23T07:17:59.881Z,0.70
2023-01-23T07:20:47.512Z,0.60
2023-01-23T07:23:34.539Z,0.90
2023-01-23T07:26:23.606Z,0.80
2023-01-23T07:29:10.737Z,0.90
2023-01-23T07:31:57.755Z,0.83
2023-01-23T07:34:44.893Z,0.80
2023-01-23T07:37:31.818Z,0.77
2023-01-23T07:40:19.299Z,0.70
2023-01-23T07:43:06.264Z,1.17
2023-01-23T07:45:53.276Z,0.60
2023-01-23T07:48:40.046Z,0.60
2023-01-23T07:51:27.244Z,0.70
2023-01-23T07:53:54.305Z,0.83
2023-01-23T07:56:21.490Z,0.80
2023-01-23T07:58:51.533Z,1.10
2023-01-23T08:01:19.432Z,0.63
2023-01-23T08:03:47.464Z,0.70
2023-01-23T08:06:14.775Z,0.80
2023-01-23T08:08:41.720Z,0.63
2023-01-23T08:11:12.687Z,0.90
2023-01-23T08:13:39.647Z,0.90
2023-01-23T08:16:07.803Z,0.90
2023-01-23T08:18:35.127Z,0.80
2023-01-23T08:21:03.789Z,0.90
2023-01-23T08:23:33.680Z,1.10
2023-01-23T08:26:05.671Z,0.70
2023-01-23T08:28:32.675Z,0.80
2023-01-23T08:31:06.710Z,0.87
2023-01-23T08:33:35.157Z,0.70
2023-01-23T08:36:02.245Z,0.83
2023-01-23T08:38:30.629Z,0.90
2023-01-23T08:41:00.626Z,0.90
2023-01-23T08:43:27.840Z,0.97
2023-01-23T08:45:57.294Z,0.83
2023-01-23T08:48:25.552Z,1.03
2023-01-23T08:51:00.002Z,0.90
2023-01-23T08:53:27.164Z,0.87
2023-01-23T08:55:54.169Z,1.13
2023-01-23T08:58:21.093Z,0.97
2023-01-23T09:00:48.688Z,1.10
2023-01-23T09:03:15.730Z,1.47
2023-01-23T09:05:42.612Z,0.90
2023-01-23T09:08:09.548Z,0.87
2023-01-23T09:10:36.889Z,1.30
2023-01-23T09:13:04.332Z,1.30
2023-01-23T09:15:31.613Z,1.90
2023-01-23T09:17:58.550Z,1.50
2023-01-23T09:20:29.239Z,1.50
2023-01-23T09:22:56.403Z,1.73
2023-01-23T09:25:23.377Z,2.00
2023-01-23T09:27:50.445Z,1.57
2023-01-23T09:30:17.858Z,1.40
2023-01-23T09:32:44.867Z,1.30
2023-01-23T09:35:11.982Z,1.53
2023-01-23T09:37:58.945Z,1.40
2023-01-23T09:40:36.452Z,1.10
2023-01-23T09:43:27.784Z,1.40
2023-01-23T09:46:18.835Z,1.20
2023-01-23T09:48:58.218Z,1.37
2023-01-23T09:52:03.929Z,1.17
2023-01-23T09:54:34.026Z,1.27
2023-01-23T09:57:11.321Z,1.10
2023-01-23T09:59:54.012Z,1.30
2023-01-23T10:02:27.081Z,1.60
2023-01-23T10:04:56.369Z,1.50
2023-01-23T10:07:42.519Z,1.50
2023-01-23T10:10:30.906Z,1.33
2023-01-23T10:13:14.911Z,1.40
2023-01-23T10:15:53.765Z,1.70
2023-01-23T10:19:00.911Z,1.03
2023-01-23T10:21:59.241Z,1.03
2023-01-23T10:24:58.461Z,1.00
2023-01-23T10:27:58.890Z,1.43
2023-01-23T10:30:50.999Z,1.10
2023-01-23T10:33:39.169Z,1.17
2023-01-23T10:36:47.560Z,0.97
2023-01-23T10:39:20.478Z,0.90
2023-01-23T10:41:51.127Z,0.83
2023-01-23T10:44:20.352Z,1.03
2023-01-23T10:46:54.524Z,1.00
2023-01-23T10:49:31.479Z,0.80
2023-01-23T10:51:59.222Z,1.10
2023-01-23T10:54:32.337Z,1.20
2023-01-23T10:57:20.903Z,0.83
2023-01-23T11:00:07.926Z,1.20
2023-01-23T11:02:38.194Z,0.87
2023-01-23T11:05:51.114Z,1.13
2023-01-23T11:08:31.115Z,1.00
2023-01-23T11:11:19.500Z,0.80
2023-01-23T11:14:09.219Z,1.10
2023-01-23T11:16:56.638Z,0.90
2023-01-23T11:19:43.587Z,1.00
2023-01-23T11:22:46.828Z,0.80
2023-01-23T11:25:55.512Z,0.90
2023-01-23T11:28:47.085Z,1.00
2023-01-23T11:31:41.396Z,0.77
2023-01-23T11:34:33.534Z,1.00
2023-01-23T11:37:20.455Z,0.87
2023-01-23T11:40:22.354Z,0.87
2023-01-23T11:43:09.485Z,0.70
2023-01-23T11:46:09.271Z,0.67
2023-01-23T11:49:09.825Z,0.67
2023-01-23T11:52:02.956Z,0.90
2023-01-23T11:55:14.887Z,0.80
2023-01-23T11:58:05.907Z,0.87
2023-01-23T12:00:42.634Z,0.87
2023-01-23T12:03:47.096Z,0.80
2023-01-23T12:06:23.070Z,0.87
2023-01-23T12:09:12.808Z,0.80
2023-01-23T12:11:48.761Z,0.90
2023-01-23T12:14:30.923Z,1.10
2023-01-23T12:17:10.240Z,1.10
2023-01-23T12:20:00.611Z,0.97
2023-01-23T12:22:30.343Z,1.50
2023-01-23T12:25:10.293Z,1.20
2023-01-23T12:27:48.663Z,0.90
2023-01-23T12:30:40.029Z,1.57
2023-01-23T12:33:25.319Z,1.33
2023-01-23T12:36:21.783Z,1.27
2023-01-23T12:39:21.515Z,1.00
2023-01-23T12:41:48.394Z,1.00
2023-01-23T12:45:00.155Z,1.00
2023-01-23T12:47:50.118Z,1.10
2023-01-23T12:50:20.693Z,1.27
2023-01-23T12:53:00.556Z,1.10
2023-01-23T12:55:42.125Z,0.77
2023-01-23T12:58:15.025Z,1.00
2023-01-23T13:01:35.924Z,1.00
2023-01-23T13:04:32.076Z,0.80
2023-01-23T13:07:37.475Z,1.17
2023-01-23T13:10:41.047Z,0.97
2023-01-23T13:13:28.152Z,0.87
2023-01-23T13:16:30.543Z,0.93
2023-01-23T13:19:18.997Z,0.80
2023-01-23T13:22:43.315Z,1.00
2023-01-23T13:25:38.538Z,0.83
2023-01-23T13:28:55.378Z,0.90
2023-01-23T13:32:12.866Z,0.60
2023-01-23T13:34:59.881Z,0.60
2023-01-23T13:38:07.206Z,0.77
2023-01-23T13:40:34.123Z,0.70
2023-01-23T13:43:53.586Z,0.50
2023-01-23T14:20:26.701Z,0.70
2023-01-23T14:22:56.567Z,0.60
2023-01-23T14:25:23.698Z,0.70
2023-01-23T14:28:03.662Z,0.90
2023-01-23T14:30:31.733Z,0.70
2023-01-23T14:33:01.515Z,0.80
2023-01-23T14:35:31.374Z,0.77
2023-01-23T14:38:05.605Z,0.90
2023-01-23T14:40:46.602Z,0.73
2023-01-23T14:43:22.805Z,0.73
2023-01-23T14:46:18.840Z,0.70
2023-01-23T14:48:52.120Z,0.90
2023-01-23T14:51:44.859Z,0.70
2023-01-23T14:54:22.829Z,1.00
2023-01-23T14:56:51.261Z,0.60
2023-01-23T14:59:32.736Z,0.70
2023-01-23T15:02:10.248Z,0.80
2023-01-23T15:05:04.047Z,0.80
2023-01-23T15:07:51.052Z,0.80
2023-01-23T15:10:43.813Z,1.00
2023-01-23T15:14:00.551Z,0.90
2023-01-23T15:16:54.314Z,0.90
2023-01-23T15:19:44.083Z,0.53
2023-01-23T15:22:49.052Z,0.60
2023-01-23T15:26:00.863Z,0.70
2023-01-23T15:29:09.484Z,0.60
2023-01-23T15:31:59.516Z,0.67
2023-01-23T15:34:51.109Z,0.80
2023-01-23T15:37:44.383Z,0.80
2023-01-23T15:40:37.688Z,0.90
2023-01-23T15:43:31.081Z,0.90
2023-01-23T15:46:18.040Z,1.00
2023-01-23T15:49:08.704Z,0.90
2023-01-23T15:51:57.884Z,0.80
2023-01-23T15:54:51.843Z,1.00
2023-01-23T15:57:38.908Z,0.97
2023-01-23T16:00:37.325Z,1.00
2023-01-23T16:03:24.681Z,1.00
2023-01-23T16:06:11.549Z,0.70
2023-01-23T16:08:38.608Z,1.10
2023-01-23T16:11:05.711Z,1.07
2023-01-23T16:13:33.162Z,1.13
2023-01-23T16:16:00.128Z,0.90
2023-01-23T16:18:27.505Z,0.67
2023-01-23T16:21:14.653Z,0.80
2023-01-23T16:24:01.958Z,0.70
2023-01-23T16:26:49.315Z,0.80
2023-01-23T16:29:48.155Z,0.73
2023-01-23T16:32:35.112Z,0.90
2023-01-23T16:35:02.113Z,0.70
2023-01-23T16:37:29.876Z,0.87
2023-01-23T16:39:56.890Z,1.10
2023-01-23T16:42:25.373Z,1.07
2023-01-23T16:44:52.337Z,1.30
2023-01-23T16:47:19.416Z,0.97
2023-01-23T16:49:52.706Z,1.00
2023-01-23T16:52:21.911Z,1.10
2023-01-23T16:54:52.589Z,1.10
2023-01-23T16:57:20.634Z,0.90
2023-01-23T16:59:49.954Z,1.00
2023-01-23T17:02:19.991Z,0.93
2023-01-23T17:04:46.921Z,1.13
2023-01-23T17:07:18.273Z,1.00
2023-01-23T17:09:45.943Z,1.10
2023-01-23T17:12:21.103Z,1.30
2023-01-23T17:14:49.932Z,1.23
2023-01-23T17:17:24.600Z,1.17
2023-01-23T17:19:52.505Z,1.27
2023-01-23T17:22:26.245Z,1.10
2023-01-23T17:24:53.577Z,1.10
2023-01-23T17:27:20.475Z,1.23
2023-01-23T17:29:47.564Z,1.30
2023-01-23T17:32:21.824Z,1.33
2023-01-23T17:35:09.011Z,1.03
2023-01-23T17:37:56.016Z,1.30
2023-01-23T17:40:43.316Z,1.00
2023-01-23T17:43:32.229Z,1.30
2023-01-23T17:46:19.347Z,1.20
2023-01-23T17:49:06.249Z,1.20
2023-01-23T17:51:53.349Z,1.10
2023-01-23T17:54:40.356Z,1.30
2023-01-23T17:57:27.256Z,1.43
2023-01-23T18:00:14.100Z,1.40
2023-01-23T18:03:02.505Z,1.17
2023-01-23T18:05:49.502Z,1.07
2023-01-23T18:08:44.199Z,1.13
2023-01-23T18:11:44.192Z,1.53
2023-01-23T18:14:46.086Z,1.07
2023-01-23T18:17:49.105Z,1.23
2023-01-23T18:20:45.558Z,1.23
2023-01-23T18:23:34.145Z,1.17
2023-01-23T18:26:54.847Z,1.10
2023-01-23T18:29:47.823Z,1.37
2023-01-23T18:32:34.603Z,1.27
2023-01-23T18:36:03.053Z,1.50
2023-01-23T18:39:27.225Z,1.43
2023-01-23T18:42:36.633Z,1.67
2023-01-23T18:45:30.135Z,1.40
2023-01-23T18:48:25.481Z,1.87
2023-01-23T18:51:35.705Z,1.80
2023-01-23T18:54:41.287Z,1.73
2023-01-23T18:57:31.226Z,1.30
2023-01-23T19:01:02.818Z,1.73
2023-01-23T19:04:02.919Z,1.40
2023-01-23T19:06:50.031Z,1.80
2023-01-23T19:09:40.300Z,1.73
2023-01-23T19:12:35.513Z,1.63
2023-01-23T19:15:47.359Z,1.60
2023-01-23T19:18:52.434Z,1.53
2023-01-23T19:21:45.304Z,1.40
2023-01-23T19:24:32.470Z,1.37
2023-01-23T19:27:19.739Z,1.60
2023-01-23T19:30:06.913Z,1.70
2023-01-23T19:32:54.102Z,1.70
2023-01-23T19:35:41.414Z,1.60
2023-01-23T19:38:28.379Z,1.77
2023-01-23T19:41:15.477Z,1.77
2023-01-23T19:44:02.330Z,1.70
2023-01-23T19:46:52.709Z,1.50
2023-01-23T19:49:39.878Z,1.37
2023-01-23T19:52:26.873Z,1.60
2023-01-23T19:55:14.008Z,1.80
2023-01-23T19:58:00.953Z,1.60
2023-01-23T20:00:50.393Z,1.27
2023-01-23T20:03:37.378Z,1.70
2023-01-23T20:06:24.545Z,1.53
2023-01-23T20:09:11.449Z,1.97
2023-01-23T20:11:58.475Z,1.80
2023-01-23T20:14:45.397Z,1.63
2023-01-23T20:17:32.214Z,1.67
2023-01-23T20:20:19.451Z,1.40
2023-01-23T20:23:06.451Z,1.70
2023-01-23T20:25:53.496Z,1.57
2023-01-23T20:28:40.506Z,1.70
2023-01-23T20:31:30.129Z,1.63
2023-01-23T20:34:17.042Z,1.87
2023-01-23T20:37:04.029Z,1.50
2023-01-23T20:39:51.635Z,1.90
2023-01-23T20:42:38.530Z,1.83
2023-01-23T20:45:26.327Z,1.50
2023-01-23T20:48:13.246Z,1.77
2023-01-23T20:51:00.361Z,1.50
2023-01-23T20:53:50.225Z,1.33
2023-01-23T20:56:39.420Z,1.60
2023-01-23T20:59:38.515Z,1.57
2023-01-23T21:02:45.170Z,1.67
2023-01-23T21:05:32.340Z,1.20
2023-01-23T21:08:19.208Z,1.40
2023-01-23T21:11:06.166Z,1.20
2023-01-23T21:13:53.570Z,1.20
2023-01-23T21:16:40.649Z,1.03
2023-01-23T21:19:27.756Z,1.33
2023-01-23T21:21:54.697Z,1.30
2023-01-23T21:24:21.794Z,1.20
2023-01-23T21:26:48.759Z,1.43
2023-01-23T21:29:16.125Z,1.30
2023-01-23T21:31:43.616Z,1.20
2023-01-23T21:34:13.211Z,1.40
2023-01-23T21:36:42.049Z,1.00
2023-01-23T21:39:10.802Z,1.40
2023-01-23T21:41:39.356Z,1.00
2023-01-23T21:44:06.362Z,1.27
2023-01-23T21:46:33.388Z,0.90
2023-01-23T21:49:00.230Z,0.90
2023-01-23T21:51:27.862Z,1.03
2023-01-23T21:53:55.173Z,1.00
2023-01-23T21:56:23.587Z,1.20
2023-01-23T21:58:50.920Z,1.07
2023-01-23T22:01:32.817Z,0.90
2023-01-23T22:04:09.204Z,0.97
2023-01-23T22:06:37.949Z,0.70
2023-01-23T22:09:06.071Z,0.83
2023-01-23T22:11:33.518Z,1.10
2023-01-23T22:14:00.955Z,0.80
2023-01-23T22:16:46.393Z,0.70
2023-01-23T22:19:16.270Z,1.00
2023-01-23T22:21:44.387Z,0.80
2023-01-23T22:24:11.350Z,0.90
2023-01-23T22:26:38.553Z,0.90
2023-01-23T22:29:05.451Z,0.63
2023-01-23T22:31:32.472Z,0.90
2023-01-23T22:33:59.641Z,1.00
2023-01-23T22:36:26.592Z,0.90
2023-01-23T22:38:54.622Z,1.23
2023-01-23T22:41:22.436Z,1.13
2023-01-23T22:43:54.394Z,1.30
2023-01-23T22:46:22.240Z,1.10
2023-01-23T22:48:49.326Z,0.83
2023-01-23T22:51:25.146Z,0.90
2023-01-23T22:53:56.814Z,1.23
2023-01-23T22:56:25.460Z,1.10
2023-01-23T22:58:54.360Z,1.10
2023-01-23T23:01:23.524Z,1.10
2023-01-23T23:04:10.615Z,1.23
2023-01-23T23:06:37.592Z,1.30
2023-01-23T23:09:05.402Z,1.03
2023-01-23T23:11:32.737Z,1.53
2023-01-23T23:13:59.627Z,1.50
2023-01-23T23:16:30.912Z,1.47
2023-01-23T23:19:01.433Z,1.40
2023-01-23T23:21:31.803Z,1.43
2023-01-23T23:24:00.196Z,1.40
2023-01-23T23:26:30.669Z,1.20
2023-01-23T23:28:58.694Z,1.60
2023-01-23T23:31:25.781Z,1.67
2023-01-23T23:33:53.526Z,1.77
2023-01-23T23:36:20.544Z,1.90
2023-01-23T23:38:47.596Z,2.17
2023-01-23T23:41:18.644Z,1.80
2023-01-23T23:43:45.718Z,1.77
2023-01-23T23:46:13.587Z,1.93
2023-01-23T23:48:40.581Z,1.80
2023-01-23T23:51:11.227Z,1.80
2023-01-23T23:53:38.327Z,1.67
2023-01-23T23:56:06.782Z,2.27
2023-01-23T23:58:36.735Z,1.50
